sensor_id;sensor_type;location;lat;lon;timestamp;P1;durP1;ratioP1;P2;durP2;ratioP2
52188;SDS011;38162;45.926;13.608;2022-08-19T00:01:33;15.57;;;3.47;;
52188;SDS011;38162;45.926;13.608;2022-08-19T00:04:02;13.02;;;3.50;;
52188;SDS011;38162;45.926;13.608;2022-08-19T00:06:30;14.82;;;3.55;;
52188;SDS011;38162;45.926;13.608;2022-08-19T00:08:56;13.82;;;3.45;;
52188;SDS011;38162;45.926;13.608;2022-08-19T00:11:25;14.10;;;3.22;;
52188;SDS011;38162;45.926;13.608;2022-08-19T00:13:51;16.77;;;4.32;;
52188;SDS011;38162;45.926;13.608;2022-08-19T00:16:18;16.27;;;3.45;;
52188;SDS011;38162;45.926;13.608;2022-08-19T00:18:44;14.07;;;2.97;;
52188;SDS011;38162;45.926;13.608;2022-08-19T00:21:10;11.98;;;3.30;;
52188;SDS011;38162;45.926;13.608;2022-08-19T00:23:36;15.68;;;3.67;;
52188;SDS011;38162;45.926;13.608;2022-08-19T00:26:04;14.57;;;3.58;;
52188;SDS011;38162;45.926;13.608;2022-08-19T00:28:31;14.60;;;3.90;;
52188;SDS011;38162;45.926;13.608;2022-08-19T00:30:57;17.05;;;4.22;;
52188;SDS011;38162;45.926;13.608;2022-08-19T00:33:24;18.00;;;3.28;;
52188;SDS011;38162;45.926;13.608;2022-08-19T00:35:50;15.85;;;3.22;;
52188;SDS011;38162;45.926;13.608;2022-08-19T00:38:16;10.65;;;2.90;;
52188;SDS011;38162;45.926;13.608;2022-08-19T00:40:42;15.48;;;3.92;;
52188;SDS011;38162;45.926;13.608;2022-08-19T00:43:11;13.75;;;3.20;;
52188;SDS011;38162;45.926;13.608;2022-08-19T00:45:40;13.20;;;3.28;;
52188;SDS011;38162;45.926;13.608;2022-08-19T00:48:08;14.80;;;4.35;;
52188;SDS011;38162;45.926;13.608;2022-08-19T00:50:34;9.48;;;2.95;;
52188;SDS011;38162;45.926;13.608;2022-08-19T00:53:01;10.88;;;3.00;;
52188;SDS011;38162;45.926;13.608;2022-08-19T00:55:29;18.85;;;3.58;;
52188;SDS011;38162;45.926;13.608;2022-08-19T00:57:57;14.02;;;3.70;;
52188;SDS011;38162;45.926;13.608;2022-08-19T01:00:27;9.73;;;3.03;;
52188;SDS011;38162;45.926;13.608;2022-08-19T01:02:53;16.30;;;3.95;;
52188;SDS011;38162;45.926;13.608;2022-08-19T01:05:21;15.15;;;3.50;;
52188;SDS011;38162;45.926;13.608;2022-08-19T01:07:52;15.18;;;2.67;;
52188;SDS011;38162;45.926;13.608;2022-08-19T01:10:21;14.32;;;2.85;;
52188;SDS011;38162;45.926;13.608;2022-08-19T01:12:50;13.43;;;3.22;;
52188;SDS011;38162;45.926;13.608;2022-08-19T01:15:18;10.05;;;2.90;;
52188;SDS011;38162;45.926;13.608;2022-08-19T01:17:47;12.25;;;3.40;;
52188;SDS011;38162;45.926;13.608;2022-08-19T01:20:16;10.63;;;3.03;;
52188;SDS011;38162;45.926;13.608;2022-08-19T01:22:46;15.82;;;3.08;;
52188;SDS011;38162;45.926;13.608;2022-08-19T01:25:14;23.85;;;3.40;;
52188;SDS011;38162;45.926;13.608;2022-08-19T01:27:45;16.95;;;3.30;;
52188;SDS011;38162;45.926;13.608;2022-08-19T01:30:15;14.15;;;3.28;;
52188;SDS011;38162;45.926;13.608;2022-08-19T01:32:43;13.63;;;3.47;;
52188;SDS011;38162;45.926;13.608;2022-08-19T01:35:09;12.27;;;3.28;;
52188;SDS011;38162;45.926;13.608;2022-08-19T01:38:18;13.60;;;3.65;;
52188;SDS011;38162;45.926;13.608;2022-08-19T01:40:34;14.23;;;3.13;;
52188;SDS011;38162;45.926;13.608;2022-08-19T01:43:01;16.25;;;3.33;;
52188;SDS011;38162;45.926;13.608;2022-08-19T01:45:29;10.10;;;2.75;;
52188;SDS011;38162;45.926;13.608;2022-08-19T01:47:57;10.80;;;2.80;;
52188;SDS011;38162;45.926;13.608;2022-08-19T01:50:24;11.60;;;3.15;;
52188;SDS011;38162;45.926;13.608;2022-08-19T01:52:49;18.40;;;3.10;;
52188;SDS011;38162;45.926;13.608;2022-08-19T01:55:16;12.98;;;3.42;;
52188;SDS011;38162;45.926;13.608;2022-08-19T01:57:46;17.35;;;3.05;;
52188;SDS011;38162;45.926;13.608;2022-08-19T02:00:15;13.75;;;3.00;;
52188;SDS011;38162;45.926;13.608;2022-08-19T02:02:43;13.52;;;3.17;;
52188;SDS011;38162;45.926;13.608;2022-08-19T02:05:09;17.27;;;3.40;;
52188;SDS011;38162;45.926;13.608;2022-08-19T02:07:36;20.20;;;3.35;;
52188;SDS011;38162;45.926;13.608;2022-08-19T02:10:05;10.55;;;3.53;;
52188;SDS011;38162;45.926;13.608;2022-08-19T02:12:32;11.23;;;2.78;;
52188;SDS011;38162;45.926;13.608;2022-08-19T02:14:58;18.10;;;3.10;;
52188;SDS011;38162;45.926;13.608;2022-08-19T02:17:26;14.20;;;2.58;;
52188;SDS011;38162;45.926;13.608;2022-08-19T02:19:53;14.15;;;2.83;;
52188;SDS011;38162;45.926;13.608;2022-08-19T02:22:20;12.45;;;3.28;;
52188;SDS011;38162;45.926;13.608;2022-08-19T02:24:46;15.98;;;4.70;;
52188;SDS011;38162;45.926;13.608;2022-08-19T02:27:13;12.63;;;2.83;;
52188;SDS011;38162;45.926;13.608;2022-08-19T02:29:39;17.63;;;3.17;;
52188;SDS011;38162;45.926;13.608;2022-08-19T02:32:05;13.70;;;3.17;;
52188;SDS011;38162;45.926;13.608;2022-08-19T02:34:31;18.80;;;3.63;;
52188;SDS011;38162;45.926;13.608;2022-08-19T02:36:57;15.07;;;3.55;;
52188;SDS011;38162;45.926;13.608;2022-08-19T02:39:23;13.88;;;3.20;;
52188;SDS011;38162;45.926;13.608;2022-08-19T02:41:49;18.95;;;3.63;;
52188;SDS011;38162;45.926;13.608;2022-08-19T02:44:15;11.60;;;3.08;;
52188;SDS011;38162;45.926;13.608;2022-08-19T02:46:41;16.00;;;3.22;;
52188;SDS011;38162;45.926;13.608;2022-08-19T02:49:08;13.60;;;3.17;;
52188;SDS011;38162;45.926;13.608;2022-08-19T02:51:35;16.98;;;3.22;;
52188;SDS011;38162;45.926;13.608;2022-08-19T02:54:06;10.85;;;3.05;;
52188;SDS011;38162;45.926;13.608;2022-08-19T02:56:36;13.02;;;2.63;;
52188;SDS011;38162;45.926;13.608;2022-08-19T02:59:04;14.23;;;3.25;;
52188;SDS011;38162;45.926;13.608;2022-08-19T03:01:34;15.43;;;2.90;;
52188;SDS011;38162;45.926;13.608;2022-08-19T03:04:02;11.05;;;3.10;;
52188;SDS011;38162;45.926;13.608;2022-08-19T03:06:29;19.48;;;3.08;;
52188;SDS011;38162;45.926;13.608;2022-08-19T03:08:56;9.77;;;2.63;;
52188;SDS011;38162;45.926;13.608;2022-08-19T03:11:26;10.23;;;2.88;;
52188;SDS011;38162;45.926;13.608;2022-08-19T03:13:54;13.70;;;3.10;;
52188;SDS011;38162;45.926;13.608;2022-08-19T03:16:21;14.02;;;2.90;;
52188;SDS011;38162;45.926;13.608;2022-08-19T03:18:49;12.38;;;2.97;;
52188;SDS011;38162;45.926;13.608;2022-08-19T03:21:16;11.13;;;3.47;;
52188;SDS011;38162;45.926;13.608;2022-08-19T03:23:43;14.27;;;2.92;;
52188;SDS011;38162;45.926;13.608;2022-08-19T03:26:09;13.65;;;3.08;;
52188;SDS011;38162;45.926;13.608;2022-08-19T03:28:35;13.70;;;2.92;;
52188;SDS011;38162;45.926;13.608;2022-08-19T03:33:29;14.05;;;3.13;;
52188;SDS011;38162;45.926;13.608;2022-08-19T03:36:00;9.93;;;2.97;;
52188;SDS011;38162;45.926;13.608;2022-08-19T03:38:42;8.87;;;2.90;;
52188;SDS011;38162;45.926;13.608;2022-08-19T03:41:15;17.08;;;3.75;;
52188;SDS011;38162;45.926;13.608;2022-08-19T03:43:50;13.18;;;3.33;;
52188;SDS011;38162;45.926;13.608;2022-08-19T03:46:17;15.95;;;3.90;;
52188;SDS011;38162;45.926;13.608;2022-08-19T03:48:49;11.98;;;3.35;;
52188;SDS011;38162;45.926;13.608;2022-08-19T03:53:49;14.43;;;3.65;;
52188;SDS011;38162;45.926;13.608;2022-08-19T03:56:19;17.85;;;3.30;;
52188;SDS011;38162;45.926;13.608;2022-08-19T03:58:45;13.10;;;2.92;;
52188;SDS011;38162;45.926;13.608;2022-08-19T04:01:12;19.27;;;2.92;;
52188;SDS011;38162;45.926;13.608;2022-08-19T04:03:40;14.23;;;2.80;;
52188;SDS011;38162;45.926;13.608;2022-08-19T04:08:47;8.90;;;2.42;;
52188;SDS011;38162;45.926;13.608;2022-08-19T04:11:16;15.85;;;3.03;;
52188;SDS011;38162;45.926;13.608;2022-08-19T04:13:46;9.63;;;2.83;;
52188;SDS011;38162;45.926;13.608;2022-08-19T04:16:13;20.67;;;3.28;;
52188;SDS011;38162;45.926;13.608;2022-08-19T04:18:39;17.08;;;3.05;;
52188;SDS011;38162;45.926;13.608;2022-08-19T04:21:07;16.30;;;2.75;;
52188;SDS011;38162;45.926;13.608;2022-08-19T04:23:33;12.10;;;2.50;;
52188;SDS011;38162;45.926;13.608;2022-08-19T04:26:02;7.82;;;2.25;;
52188;SDS011;38162;45.926;13.608;2022-08-19T04:28:28;11.65;;;2.15;;
52188;SDS011;38162;45.926;13.608;2022-08-19T04:30:54;11.27;;;2.40;;
52188;SDS011;38162;45.926;13.608;2022-08-19T04:33:24;10.80;;;2.33;;
52188;SDS011;38162;45.926;13.608;2022-08-19T04:35:51;12.18;;;3.17;;
52188;SDS011;38162;45.926;13.608;2022-08-19T04:38:18;14.75;;;2.65;;
52188;SDS011;38162;45.926;13.608;2022-08-19T04:40:48;9.43;;;2.70;;
52188;SDS011;38162;45.926;13.608;2022-08-19T04:43:34;11.75;;;2.75;;
52188;SDS011;38162;45.926;13.608;2022-08-19T04:46:12;13.40;;;2.88;;
52188;SDS011;38162;45.926;13.608;2022-08-19T04:48:38;12.38;;;2.75;;
52188;SDS011;38162;45.926;13.608;2022-08-19T04:51:08;14.93;;;2.70;;
52188;SDS011;38162;45.926;13.608;2022-08-19T04:53:36;15.70;;;2.63;;
52188;SDS011;38162;45.926;13.608;2022-08-19T04:56:07;12.85;;;2.80;;
52188;SDS011;38162;45.926;13.608;2022-08-19T04:58:35;14.60;;;2.90;;
52188;SDS011;38162;45.926;13.608;2022-08-19T05:01:02;14.80;;;2.90;;
52188;SDS011;38162;45.926;13.608;2022-08-19T05:03:28;11.05;;;2.40;;
52188;SDS011;38162;45.926;13.608;2022-08-19T05:05:57;7.55;;;1.70;;
52188;SDS011;38162;45.926;13.608;2022-08-19T05:08:24;10.65;;;1.73;;
52188;SDS011;38162;45.926;13.608;2022-08-19T05:10:50;8.70;;;1.70;;
52188;SDS011;38162;45.926;13.608;2022-08-19T05:13:17;11.15;;;2.28;;
52188;SDS011;38162;45.926;13.608;2022-08-19T05:15:45;6.50;;;1.35;;
52188;SDS011;38162;45.926;13.608;2022-08-19T05:18:19;7.20;;;1.40;;
52188;SDS011;38162;45.926;13.608;2022-08-19T05:21:07;5.60;;;1.27;;
52188;SDS011;38162;45.926;13.608;2022-08-19T05:24:02;3.55;;;1.05;;
52188;SDS011;38162;45.926;13.608;2022-08-19T05:26:29;3.45;;;0.82;;
52188;SDS011;38162;45.926;13.608;2022-08-19T05:28:55;4.75;;;1.00;;
52188;SDS011;38162;45.926;13.608;2022-08-19T05:31:21;2.53;;;0.70;;
52188;SDS011;38162;45.926;13.608;2022-08-19T05:33:47;2.50;;;0.82;;
52188;SDS011;38162;45.926;13.608;2022-08-19T05:36:13;5.63;;;0.90;;
52188;SDS011;38162;45.926;13.608;2022-08-19T05:38:39;1.73;;;0.60;;
52188;SDS011;38162;45.926;13.608;2022-08-19T05:41:11;2.55;;;0.52;;
52188;SDS011;38162;45.926;13.608;2022-08-19T05:43:39;2.22;;;0.60;;
52188;SDS011;38162;45.926;13.608;2022-08-19T05:46:05;4.55;;;0.90;;
52188;SDS011;38162;45.926;13.608;2022-08-19T05:48:32;5.28;;;0.93;;
52188;SDS011;38162;45.926;13.608;2022-08-19T05:51:03;2.75;;;0.75;;
52188;SDS011;38162;45.926;13.608;2022-08-19T05:55:56;4.95;;;0.80;;
52188;SDS011;38162;45.926;13.608;2022-08-19T05:58:22;2.33;;;0.70;;
52188;SDS011;38162;45.926;13.608;2022-08-19T06:00:48;1.48;;;0.52;;
52188;SDS011;38162;45.926;13.608;2022-08-19T06:03:14;4.63;;;0.70;;
52188;SDS011;38162;45.926;13.608;2022-08-19T06:05:40;7.93;;;1.20;;
52188;SDS011;38162;45.926;13.608;2022-08-19T06:08:06;7.38;;;1.40;;
52188;SDS011;38162;45.926;13.608;2022-08-19T06:10:32;5.70;;;1.20;;
52188;SDS011;38162;45.926;13.608;2022-08-19T06:12:58;5.05;;;1.88;;
52188;SDS011;38162;45.926;13.608;2022-08-19T06:15:23;6.30;;;1.35;;
52188;SDS011;38162;45.926;13.608;2022-08-19T06:17:50;4.55;;;1.27;;
52188;SDS011;38162;45.926;13.608;2022-08-19T06:20:16;4.35;;;1.40;;
52188;SDS011;38162;45.926;13.608;2022-08-19T06:22:44;5.07;;;1.17;;
52188;SDS011;38162;45.926;13.608;2022-08-19T06:25:11;5.72;;;1.40;;
52188;SDS011;38162;45.926;13.608;2022-08-19T06:27:39;4.22;;;1.63;;
52188;SDS011;38162;45.926;13.608;2022-08-19T06:30:05;4.57;;;1.23;;
52188;SDS011;38162;45.926;13.608;2022-08-19T06:32:31;6.72;;;1.75;;
52188;SDS011;38162;45.926;13.608;2022-08-19T06:34:57;4.50;;;1.45;;
52188;SDS011;38162;45.926;13.608;2022-08-19T06:37:23;5.32;;;1.50;;
52188;SDS011;38162;45.926;13.608;2022-08-19T06:39:49;5.25;;;1.30;;
52188;SDS011;38162;45.926;13.608;2022-08-19T06:42:15;4.97;;;1.10;;
52188;SDS011;38162;45.926;13.608;2022-08-19T06:44:44;3.35;;;0.98;;
52188;SDS011;38162;45.926;13.608;2022-08-19T06:47:12;5.25;;;1.30;;
52188;SDS011;38162;45.926;13.608;2022-08-19T06:49:39;5.63;;;1.17;;
52188;SDS011;38162;45.926;13.608;2022-08-19T06:52:05;3.40;;;1.00;;
52188;SDS011;38162;45.926;13.608;2022-08-19T06:54:31;5.72;;;1.00;;
52188;SDS011;38162;45.926;13.608;2022-08-19T06:56:57;1.85;;;0.80;;
52188;SDS011;38162;45.926;13.608;2022-08-19T06:59:26;3.45;;;1.00;;
52188;SDS011;38162;45.926;13.608;2022-08-19T07:01:58;5.50;;;1.15;;
52188;SDS011;38162;45.926;13.608;2022-08-19T07:04:26;7.25;;;1.00;;
52188;SDS011;38162;45.926;13.608;2022-08-19T07:07:01;4.85;;;1.05;;
52188;SDS011;38162;45.926;13.608;2022-08-19T07:09:35;3.60;;;0.98;;
52188;SDS011;38162;45.926;13.608;2022-08-19T07:12:03;7.40;;;1.02;;
52188;SDS011;38162;45.926;13.608;2022-08-19T07:14:31;5.47;;;1.48;;
52188;SDS011;38162;45.926;13.608;2022-08-19T07:17:01;5.35;;;1.02;;
52188;SDS011;38162;45.926;13.608;2022-08-19T07:19:28;8.45;;;1.50;;
52188;SDS011;38162;45.926;13.608;2022-08-19T07:21:54;13.73;;;2.25;;
52188;SDS011;38162;45.926;13.608;2022-08-19T07:24:21;62.28;;;3.85;;
52188;SDS011;38162;45.926;13.608;2022-08-19T07:26:49;16.70;;;1.35;;
52188;SDS011;38162;45.926;13.608;2022-08-19T07:29:16;6.63;;;1.42;;
52188;SDS011;38162;45.926;13.608;2022-08-19T07:31:43;8.45;;;1.45;;
52188;SDS011;38162;45.926;13.608;2022-08-19T07:34:10;9.52;;;1.27;;
52188;SDS011;38162;45.926;13.608;2022-08-19T07:36:40;28.77;;;2.42;;
52188;SDS011;38162;45.926;13.608;2022-08-19T07:39:11;9.50;;;1.08;;
52188;SDS011;38162;45.926;13.608;2022-08-19T07:41:40;4.30;;;1.20;;
52188;SDS011;38162;45.926;13.608;2022-08-19T07:44:07;4.57;;;0.80;;
52188;SDS011;38162;45.926;13.608;2022-08-19T07:46:34;5.57;;;1.23;;
52188;SDS011;38162;45.926;13.608;2022-08-19T07:49:02;6.60;;;1.08;;
52188;SDS011;38162;45.926;13.608;2022-08-19T07:51:28;4.03;;;1.05;;
52188;SDS011;38162;45.926;13.608;2022-08-19T07:53:54;6.40;;;1.38;;
52188;SDS011;38162;45.926;13.608;2022-08-19T07:56:20;7.63;;;0.88;;
52188;SDS011;38162;45.926;13.608;2022-08-19T07:58:47;3.47;;;1.17;;
52188;SDS011;38162;45.926;13.608;2022-08-19T08:01:18;5.50;;;1.10;;
52188;SDS011;38162;45.926;13.608;2022-08-19T08:06:31;4.43;;;1.05;;
52188;SDS011;38162;45.926;13.608;2022-08-19T08:09:16;4.80;;;1.00;;
52188;SDS011;38162;45.926;13.608;2022-08-19T08:14:19;5.80;;;1.17;;
52188;SDS011;38162;45.926;13.608;2022-08-19T08:16:54;8.82;;;1.60;;
52188;SDS011;38162;45.926;13.608;2022-08-19T08:19:21;4.90;;;0.95;;
52188;SDS011;38162;45.926;13.608;2022-08-19T08:21:49;4.13;;;1.30;;
52188;SDS011;38162;45.926;13.608;2022-08-19T08:24:15;4.97;;;1.02;;
52188;SDS011;38162;45.926;13.608;2022-08-19T08:26:42;9.60;;;1.40;;
52188;SDS011;38162;45.926;13.608;2022-08-19T08:29:09;3.72;;;0.90;;
52188;SDS011;38162;45.926;13.608;2022-08-19T08:31:38;5.13;;;1.13;;
52188;SDS011;38162;45.926;13.608;2022-08-19T08:34:08;2.65;;;0.93;;
52188;SDS011;38162;45.926;13.608;2022-08-19T08:36:38;9.55;;;1.10;;
52188;SDS011;38162;45.926;13.608;2022-08-19T08:39:06;5.15;;;1.00;;
52188;SDS011;38162;45.926;13.608;2022-08-19T08:44:02;7.63;;;1.58;;
52188;SDS011;38162;45.926;13.608;2022-08-19T08:52:07;8.85;;;1.52;;
52188;SDS011;38162;45.926;13.608;2022-08-19T08:54:45;9.10;;;1.63;;
52188;SDS011;38162;45.926;13.608;2022-08-19T08:57:20;6.07;;;1.50;;
52188;SDS011;38162;45.926;13.608;2022-08-19T08:59:57;24.15;;;2.22;;
52188;SDS011;38162;45.926;13.608;2022-08-19T09:02:25;9.80;;;1.90;;
52188;SDS011;38162;45.926;13.608;2022-08-19T09:04:51;16.13;;;2.00;;
52188;SDS011;38162;45.926;13.608;2022-08-19T09:10:17;7.03;;;1.55;;
52188;SDS011;38162;45.926;13.608;2022-08-19T09:18:19;10.00;;;2.00;;
52188;SDS011;38162;45.926;13.608;2022-08-19T09:20:45;9.80;;;1.75;;
52188;SDS011;38162;45.926;13.608;2022-08-19T09:23:14;11.05;;;1.85;;
52188;SDS011;38162;45.926;13.608;2022-08-19T09:25:40;9.02;;;2.30;;
52188;SDS011;38162;45.926;13.608;2022-08-19T09:28:06;6.40;;;1.90;;
52188;SDS011;38162;45.926;13.608;2022-08-19T09:30:34;8.77;;;2.20;;
52188;SDS011;38162;45.926;13.608;2022-08-19T09:33:04;10.82;;;2.75;;
52188;SDS011;38162;45.926;13.608;2022-08-19T09:35:31;10.73;;;3.00;;
52188;SDS011;38162;45.926;13.608;2022-08-19T09:37:58;12.70;;;2.33;;
52188;SDS011;38162;45.926;13.608;2022-08-19T09:40:24;9.02;;;2.22;;
52188;SDS011;38162;45.926;13.608;2022-08-19T09:42:52;9.30;;;2.15;;
52188;SDS011;38162;45.926;13.608;2022-08-19T09:45:19;12.18;;;2.13;;
52188;SDS011;38162;45.926;13.608;2022-08-19T09:47:46;13.13;;;3.40;;
52188;SDS011;38162;45.926;13.608;2022-08-19T09:50:13;9.38;;;2.08;;
52188;SDS011;38162;45.926;13.608;2022-08-19T09:52:39;18.20;;;3.22;;
52188;SDS011;38162;45.926;13.608;2022-08-19T09:55:07;9.07;;;2.58;;
52188;SDS011;38162;45.926;13.608;2022-08-19T09:57:35;12.15;;;2.10;;
52188;SDS011;38162;45.926;13.608;2022-08-19T10:00:02;11.55;;;2.15;;
52188;SDS011;38162;45.926;13.608;2022-08-19T10:02:29;13.77;;;3.13;;
52188;SDS011;38162;45.926;13.608;2022-08-19T10:04:55;16.20;;;2.72;;
52188;SDS011;38162;45.926;13.608;2022-08-19T10:07:39;14.20;;;3.08;;
52188;SDS011;38162;45.926;13.608;2022-08-19T10:10:05;20.13;;;2.92;;
52188;SDS011;38162;45.926;13.608;2022-08-19T10:12:32;14.32;;;2.92;;
52188;SDS011;38162;45.926;13.608;2022-08-19T10:14:59;18.38;;;3.17;;
52188;SDS011;38162;45.926;13.608;2022-08-19T10:17:25;17.15;;;2.85;;
52188;SDS011;38162;45.926;13.608;2022-08-19T10:19:51;15.68;;;3.42;;
52188;SDS011;38162;45.926;13.608;2022-08-19T10:22:17;13.60;;;3.08;;
52188;SDS011;38162;45.926;13.608;2022-08-19T10:24:44;11.02;;;2.45;;
52188;SDS011;38162;45.926;13.608;2022-08-19T10:27:11;12.02;;;2.60;;
52188;SDS011;38162;45.926;13.608;2022-08-19T10:29:38;11.90;;;2.83;;
52188;SDS011;38162;45.926;13.608;2022-08-19T10:32:06;11.65;;;2.90;;
52188;SDS011;38162;45.926;13.608;2022-08-19T10:34:34;13.48;;;2.78;;
52188;SDS011;38162;45.926;13.608;2022-08-19T10:37:02;13.55;;;2.70;;
52188;SDS011;38162;45.926;13.608;2022-08-19T10:39:30;14.75;;;2.60;;
52188;SDS011;38162;45.926;13.608;2022-08-19T10:41:58;11.48;;;2.60;;
52188;SDS011;38162;45.926;13.608;2022-08-19T10:44:24;12.75;;;2.72;;
52188;SDS011;38162;45.926;13.608;2022-08-19T10:46:50;15.90;;;3.08;;
52188;SDS011;38162;45.926;13.608;2022-08-19T10:49:17;16.58;;;2.90;;
52188;SDS011;38162;45.926;13.608;2022-08-19T10:51:44;7.47;;;2.22;;
52188;SDS011;38162;45.926;13.608;2022-08-19T10:54:29;15.25;;;2.78;;
52188;SDS011;38162;45.926;13.608;2022-08-19T10:57:13;15.15;;;2.70;;
52188;SDS011;38162;45.926;13.608;2022-08-19T10:59:40;12.57;;;2.80;;
52188;SDS011;38162;45.926;13.608;2022-08-19T11:02:07;13.98;;;2.70;;
52188;SDS011;38162;45.926;13.608;2022-08-19T11:04:35;13.77;;;3.15;;
52188;SDS011;38162;45.926;13.608;2022-08-19T11:07:02;15.43;;;2.75;;
52188;SDS011;38162;45.926;13.608;2022-08-19T11:09:29;14.40;;;2.97;;
52188;SDS011;38162;45.926;13.608;2022-08-19T11:11:55;15.27;;;3.08;;
52188;SDS011;38162;45.926;13.608;2022-08-19T11:14:22;15.23;;;3.08;;
52188;SDS011;38162;45.926;13.608;2022-08-19T11:16:49;17.33;;;2.58;;
52188;SDS011;38162;45.926;13.608;2022-08-19T11:19:16;15.57;;;3.85;;
52188;SDS011;38162;45.926;13.608;2022-08-19T11:21:44;20.77;;;3.47;;
52188;SDS011;38162;45.926;13.608;2022-08-19T11:24:13;14.43;;;3.33;;
52188;SDS011;38162;45.926;13.608;2022-08-19T11:26:41;26.83;;;4.82;;
52188;SDS011;38162;45.926;13.608;2022-08-19T11:29:08;34.00;;;6.93;;
52188;SDS011;38162;45.926;13.608;2022-08-19T11:31:38;26.52;;;4.13;;
52188;SDS011;38162;45.926;13.608;2022-08-19T11:34:09;16.33;;;2.92;;
52188;SDS011;38162;45.926;13.608;2022-08-19T11:36:38;23.63;;;3.72;;
52188;SDS011;38162;45.926;13.608;2022-08-19T11:39:07;22.85;;;3.95;;
52188;SDS011;38162;45.926;13.608;2022-08-19T11:41:33;22.95;;;3.45;;
52188;SDS011;38162;45.926;13.608;2022-08-19T11:43:59;15.93;;;3.50;;
52188;SDS011;38162;45.926;13.608;2022-08-19T11:46:25;18.92;;;4.28;;
52188;SDS011;38162;45.926;13.608;2022-08-19T11:48:54;20.02;;;4.35;;
52188;SDS011;38162;45.926;13.608;2022-08-19T11:51:24;17.88;;;4.07;;
52188;SDS011;38162;45.926;13.608;2022-08-19T11:53:51;28.70;;;6.35;;
52188;SDS011;38162;45.926;13.608;2022-08-19T11:56:21;22.90;;;5.40;;
52188;SDS011;38162;45.926;13.608;2022-08-19T11:58:48;22.33;;;4.55;;
52188;SDS011;38162;45.926;13.608;2022-08-19T12:01:16;20.88;;;4.47;;
52188;SDS011;38162;45.926;13.608;2022-08-19T12:03:47;27.80;;;4.68;;
52188;SDS011;38162;45.926;13.608;2022-08-19T12:06:16;22.10;;;4.03;;
52188;SDS011;38162;45.926;13.608;2022-08-19T12:08:43;23.35;;;4.78;;
52188;SDS011;38162;45.926;13.608;2022-08-19T12:11:10;17.38;;;4.13;;
52188;SDS011;38162;45.926;13.608;2022-08-19T12:13:40;19.85;;;4.07;;
52188;SDS011;38162;45.926;13.608;2022-08-19T12:16:10;27.60;;;4.93;;
52188;SDS011;38162;45.926;13.608;2022-08-19T12:18:40;22.63;;;3.90;;
52188;SDS011;38162;45.926;13.608;2022-08-19T12:21:10;21.42;;;4.75;;
52188;SDS011;38162;45.926;13.608;2022-08-19T12:23:38;20.70;;;4.70;;
52188;SDS011;38162;45.926;13.608;2022-08-19T12:26:05;19.30;;;4.00;;
52188;SDS011;38162;45.926;13.608;2022-08-19T12:28:31;22.73;;;5.43;;
52188;SDS011;38162;45.926;13.608;2022-08-19T12:30:57;24.65;;;4.93;;
52188;SDS011;38162;45.926;13.608;2022-08-19T12:33:23;19.60;;;4.88;;
52188;SDS011;38162;45.926;13.608;2022-08-19T12:35:52;19.23;;;4.25;;
52188;SDS011;38162;45.926;13.608;2022-08-19T12:38:18;22.13;;;4.60;;
52188;SDS011;38162;45.926;13.608;2022-08-19T12:40:47;20.40;;;3.72;;
52188;SDS011;38162;45.926;13.608;2022-08-19T12:43:14;22.52;;;4.28;;
52188;SDS011;38162;45.926;13.608;2022-08-19T12:45:44;26.23;;;4.25;;
52188;SDS011;38162;45.926;13.608;2022-08-19T12:48:10;27.13;;;4.47;;
52188;SDS011;38162;45.926;13.608;2022-08-19T12:50:39;20.73;;;4.28;;
52188;SDS011;38162;45.926;13.608;2022-08-19T12:53:05;20.52;;;4.47;;
52188;SDS011;38162;45.926;13.608;2022-08-19T12:55:31;18.27;;;3.92;;
52188;SDS011;38162;45.926;13.608;2022-08-19T12:57:56;25.60;;;4.18;;
52188;SDS011;38162;45.926;13.608;2022-08-19T13:00:22;25.75;;;4.93;;
52188;SDS011;38162;45.926;13.608;2022-08-19T13:02:50;14.27;;;3.78;;
52188;SDS011;38162;45.926;13.608;2022-08-19T13:05:18;23.27;;;4.97;;
52188;SDS011;38162;45.926;13.608;2022-08-19T13:07:47;20.48;;;3.42;;
52188;SDS011;38162;45.926;13.608;2022-08-19T13:10:14;18.80;;;3.75;;
52188;SDS011;38162;45.926;13.608;2022-08-19T13:12:42;15.85;;;3.75;;
52188;SDS011;38162;45.926;13.608;2022-08-19T13:15:09;18.90;;;3.60;;
52188;SDS011;38162;45.926;13.608;2022-08-19T13:17:35;23.40;;;4.70;;
52188;SDS011;38162;45.926;13.608;2022-08-19T13:20:02;12.80;;;3.63;;
52188;SDS011;38162;45.926;13.608;2022-08-19T13:22:30;17.05;;;3.58;;
52188;SDS011;38162;45.926;13.608;2022-08-19T13:24:56;13.98;;;2.70;;
52188;SDS011;38162;45.926;13.608;2022-08-19T13:27:22;15.60;;;2.67;;
52188;SDS011;38162;45.926;13.608;2022-08-19T13:29:47;15.65;;;3.22;;
52188;SDS011;38162;45.926;13.608;2022-08-19T13:32:32;16.60;;;2.75;;
52188;SDS011;38162;45.926;13.608;2022-08-19T13:35:16;19.27;;;3.22;;
52188;SDS011;38162;45.926;13.608;2022-08-19T13:37:42;14.63;;;3.03;;
52188;SDS011;38162;45.926;13.608;2022-08-19T13:40:12;16.60;;;3.45;;
52188;SDS011;38162;45.926;13.608;2022-08-19T13:42:43;17.70;;;3.25;;
52188;SDS011;38162;45.926;13.608;2022-08-19T13:45:11;18.25;;;3.25;;
52188;SDS011;38162;45.926;13.608;2022-08-19T13:47:37;24.10;;;3.60;;
52188;SDS011;38162;45.926;13.608;2022-08-19T13:50:07;14.57;;;3.60;;
52188;SDS011;38162;45.926;13.608;2022-08-19T13:52:35;19.05;;;3.17;;
52188;SDS011;38162;45.926;13.608;2022-08-19T13:55:02;20.67;;;3.00;;
52188;SDS011;38162;45.926;13.608;2022-08-19T13:57:29;12.70;;;2.40;;
52188;SDS011;38162;45.926;13.608;2022-08-19T13:59:55;11.82;;;2.28;;
52188;SDS011;38162;45.926;13.608;2022-08-19T14:02:22;11.50;;;2.08;;
52188;SDS011;38162;45.926;13.608;2022-08-19T14:04:48;10.23;;;2.45;;
52188;SDS011;38162;45.926;13.608;2022-08-19T14:07:14;10.48;;;1.88;;
52188;SDS011;38162;45.926;13.608;2022-08-19T14:09:39;7.57;;;1.73;;
52188;SDS011;38162;45.926;13.608;2022-08-19T14:12:05;7.35;;;1.67;;
52188;SDS011;38162;45.926;13.608;2022-08-19T14:14:31;8.25;;;2.03;;
52188;SDS011;38162;45.926;13.608;2022-08-19T14:17:00;7.03;;;1.98;;
52188;SDS011;38162;45.926;13.608;2022-08-19T14:19:26;12.27;;;1.90;;
52188;SDS011;38162;45.926;13.608;2022-08-19T14:21:52;13.13;;;2.67;;
52188;SDS011;38162;45.926;13.608;2022-08-19T14:24:17;12.30;;;2.58;;
52188;SDS011;38162;45.926;13.608;2022-08-19T14:26:43;14.25;;;2.95;;
52188;SDS011;38162;45.926;13.608;2022-08-19T14:29:09;14.25;;;2.47;;
52188;SDS011;38162;45.926;13.608;2022-08-19T14:31:34;17.40;;;3.42;;
52188;SDS011;38162;45.926;13.608;2022-08-19T14:34:00;13.68;;;3.40;;
52188;SDS011;38162;45.926;13.608;2022-08-19T14:36:26;11.55;;;2.40;;
52188;SDS011;38162;45.926;13.608;2022-08-19T14:38:51;9.15;;;2.50;;
52188;SDS011;38162;45.926;13.608;2022-08-19T14:41:22;12.73;;;2.92;;
52188;SDS011;38162;45.926;13.608;2022-08-19T14:43:49;11.43;;;2.53;;
52188;SDS011;38162;45.926;13.608;2022-08-19T14:46:18;11.27;;;2.80;;
52188;SDS011;38162;45.926;13.608;2022-08-19T14:48:46;13.65;;;2.78;;
52188;SDS011;38162;45.926;13.608;2022-08-19T14:51:12;15.63;;;3.35;;
52188;SDS011;38162;45.926;13.608;2022-08-19T14:53:39;11.70;;;2.45;;
52188;SDS011;38162;45.926;13.608;2022-08-19T14:56:13;12.80;;;2.75;;
52188;SDS011;38162;45.926;13.608;2022-08-19T14:58:40;10.95;;;2.35;;
52188;SDS011;38162;45.926;13.608;2022-08-19T15:01:07;9.65;;;2.00;;
52188;SDS011;38162;45.926;13.608;2022-08-19T15:03:34;12.80;;;2.70;;